Kaministiqua — CFN4612 — position and weather

sailwx.info

Track history (hours):
 
Tides and Currents Weather Stations Pressure Air Temp Water Temp Dewpoint Dewpoint Depression Visibility Wind Speed Wind Dir Waves Ship Positions

Kaministiqua

Last reported at 2015-Jul-05 06:14 UTC. Time now 2015-Jul-06 04:54 UTC.
Position N 42°24' W 080°23'.

Length 223 m; draft 8.1 m.

Type: Cargo ship. MMSI: 316009457.

Date/timePositionNaut miles runAvg speedWind from/ knotsBaromVisibWave heightAir tempDewpointWater temp
2015-Jul-05 06:14N 42°24' W 080°23'2212.5
2015-Jul-05 04:29N 42°33' W 079°56'53 3.3
2015-Jul-04 12:04N 43°17' W 079°13'226 9.5
2015-Jul-03 12:20N 45°03' W 074°35'7 8.2
2015-Jul-03 11:26N 45°07' W 074°27'1210.3
2015-Jul-03 10:17N 45°14' W 074°13'9 9.2
2015-Jul-03 09:21N 45°14' W 074°01'6 5.9
2015-Jul-03 08:21N 45°18' W 073°56'1 1.0
2015-Jul-03 07:27N 45°19' W 073°55'2 2.1
2015-Jul-03 06:33N 45°20' W 073°53'9 8.9
2015-Jul-03 05:33N 45°25' W 073°42'6 5.7
2015-Jul-03 04:31N 45°24' W 073°34'  
2015-Jun-29 19:07N 45°27' W 073°30'3 4.9
2015-Jun-29 18:33N 45°25' W 073°31'2 2.1
2015-Jun-29 17:29N 45°24' W 073°34'4 3.9
2015-Jun-29 16:32N 45°25' W 073°40'8 7.7
2015-Jun-29 15:33N 45°22' W 073°50'5 4.8
2015-Jun-29 14:31N 45°19' W 073°55'1 0.9
2015-Jun-29 13:31N 45°18' W 073°56'3 3.0
2015-Jun-29 12:29N 45°15' W 073°58'8 8.1
2015-Jun-29 11:31N 45°14' W 074°09'118 7.9
2015-Jun-28 20:33N 44°06' W 076°24'  
2015-Jun-26 05:18N 45°36' W 083°26'1512.4
2015-Jun-26 04:04N 45°47' W 083°41'612.4
2015-Jun-26 03:33N 45°52' W 083°47'1111.5
2015-Jun-26 02:33N 46°02' W 083°55'1010.3
2015-Jun-26 01:33N 46°10' W 084°04'  
Track history (hours):
 
Tides and Currents Weather Stations Pressure Air Temp Water Temp Dewpoint Dewpoint Depression Visibility Wind Speed Wind Dir Waves Ship Positions

Kaministiqua

Last reported at 2015-Jul-05 06:14 UTC. Time now 2015-Jul-06 04:54 UTC.
Position N 42°24' W 080°23'.

Length 223 m; draft 8.1 m.

Type: Cargo ship. MMSI: 316009457.

Date/timePositionNaut miles runAvg speedWind from/ knotsBaromVisibWave heightAir tempDewpointWater temp
2015-Jul-05 06:14N 42°24' W 080°23'2212.5
2015-Jul-05 04:29N 42°33' W 079°56'53 3.3
2015-Jul-04 12:04N 43°17' W 079°13'226 9.5
2015-Jul-03 12:20N 45°03' W 074°35'7 8.2
2015-Jul-03 11:26N 45°07' W 074°27'1210.3
2015-Jul-03 10:17N 45°14' W 074°13'9 9.2
2015-Jul-03 09:21N 45°14' W 074°01'6 5.9
2015-Jul-03 08:21N 45°18' W 073°56'1 1.0
2015-Jul-03 07:27N 45°19' W 073°55'2 2.1
2015-Jul-03 06:33N 45°20' W 073°53'9 8.9
2015-Jul-03 05:33N 45°25' W 073°42'6 5.7
2015-Jul-03 04:31N 45°24' W 073°34'  
2015-Jun-29 19:07N 45°27' W 073°30'3 4.9
2015-Jun-29 18:33N 45°25' W 073°31'2 2.1
2015-Jun-29 17:29N 45°24' W 073°34'4 3.9
2015-Jun-29 16:32N 45°25' W 073°40'8 7.7
2015-Jun-29 15:33N 45°22' W 073°50'5 4.8
2015-Jun-29 14:31N 45°19' W 073°55'1 0.9
2015-Jun-29 13:31N 45°18' W 073°56'3 3.0
2015-Jun-29 12:29N 45°15' W 073°58'8 8.1
2015-Jun-29 11:31N 45°14' W 074°09'118 7.9
2015-Jun-28 20:33N 44°06' W 076°24'  
2015-Jun-26 05:18N 45°36' W 083°26'1512.4
2015-Jun-26 04:04N 45°47' W 083°41'612.4
2015-Jun-26 03:33N 45°52' W 083°47'1111.5
2015-Jun-26 02:33N 46°02' W 083°55'1010.3
2015-Jun-26 01:33N 46°10' W 084°04'  

Dump ship's entire track history